Hartly, Delaware
Current Conditions -  °F | °C
As of 6:58 PM on Sunday 25 Jan 2015 (Local Time) from KDOV Reporting Station
Overcast Overcast  
Wind Chill: 44°   Ceiling: 5500
Heat Index: 44°   Visibility: 10mi
Dew Point: 34°   Wind: 3mph
Humidity: 68%   Direction: 190°S
Pressure: 29.88"   Gusts: NA
Location:  39.17°N, 75.71°W
Report Text: KDOV 252358Z AUTO 19003KT 10SM OVC055 06/01 A2988 RMK AO2 SLP122 T00640009 10096 20064 53031 $
Loading
Personal Weather Stations






























Interactive Weather Map New forecast layout! Learn more

10-Day Weather Forecast

Advertisements
Track Severe Weather on mobile